createdAt,value
2022-11-09T00:01:30.116Z,21.98
2022-11-09T00:04:00.252Z,20.73
2022-11-09T00:06:29.528Z,21.38
2022-11-09T00:09:01.323Z,19.00
2022-11-09T00:11:35.053Z,18.73
2022-11-09T00:14:05.318Z,19.25
2022-11-09T00:16:33.732Z,20.00
2022-11-09T00:19:02.011Z,19.50
2022-11-09T00:21:30.143Z,17.95
2022-11-09T00:23:58.483Z,20.23
2022-11-09T00:26:27.385Z,20.48
2022-11-09T00:28:55.535Z,19.25
2022-11-09T00:31:26.003Z,19.80
2022-11-09T00:33:55.535Z,19.70
2022-11-09T00:36:25.602Z,21.35
2022-11-09T00:38:55.441Z,20.42
2022-11-09T00:41:24.150Z,21.08
2022-11-09T00:43:52.818Z,21.05
2022-11-09T00:46:22.111Z,19.48
2022-11-09T00:48:55.744Z,19.80
2022-11-09T00:51:24.066Z,20.45
2022-11-09T00:53:55.164Z,20.60
2022-11-09T00:56:24.565Z,20.38
2022-11-09T00:58:55.782Z,20.60
2022-11-09T01:01:24.442Z,20.10
2022-11-09T01:03:54.068Z,21.75
2022-11-09T01:06:25.281Z,21.92
2022-11-09T01:08:54.011Z,19.98
2022-11-09T01:11:23.509Z,21.05
2022-11-09T01:13:53.992Z,19.50
2022-11-09T01:16:24.413Z,18.45
2022-11-09T01:18:55.509Z,20.30
2022-11-09T01:21:26.561Z,18.52
2022-11-09T01:23:54.817Z,21.70
2022-11-09T01:26:23.364Z,20.92
2022-11-09T01:28:52.652Z,19.30
2022-11-09T01:31:22.643Z,19.05
2022-11-09T01:33:51.257Z,21.00
2022-11-09T01:36:22.976Z,20.95
2022-11-09T01:38:51.736Z,20.33
2022-11-09T01:41:21.815Z,20.10
2022-11-09T01:44:11.668Z,23.70
2022-11-09T01:46:48.273Z,22.20
2022-11-09T01:49:23.851Z,20.85
2022-11-09T01:51:57.868Z,20.42
2022-11-09T01:54:30.135Z,22.65
2022-11-09T01:57:02.243Z,20.70
2022-11-09T01:59:35.089Z,20.02
2022-11-09T02:02:03.861Z,22.10
2022-11-09T02:04:36.205Z,20.20
2022-11-09T02:07:07.084Z,21.13
2022-11-09T02:09:41.100Z,20.15
2022-11-09T02:12:10.942Z,20.35
2022-11-09T02:14:40.102Z,20.65
2022-11-09T02:17:09.013Z,20.48
2022-11-09T02:19:36.999Z,20.30
2022-11-09T02:22:08.561Z,22.17
2022-11-09T02:24:36.766Z,20.75
2022-11-09T02:27:07.127Z,20.65
2022-11-09T02:29:38.305Z,20.20
2022-11-09T02:32:13.597Z,21.08
2022-11-09T02:34:41.758Z,21.60
2022-11-09T02:37:11.318Z,21.02
2022-11-09T02:39:39.965Z,20.13
2022-11-09T02:42:15.757Z,20.98
2022-11-09T02:44:52.243Z,20.83
2022-11-09T02:47:20.260Z,22.58
2022-11-09T02:49:50.125Z,20.48
2022-11-09T02:52:21.628Z,20.55
2022-11-09T02:54:49.641Z,20.70
2022-11-09T02:57:18.447Z,22.42
2022-11-09T02:59:46.783Z,20.90
2022-11-09T03:02:15.190Z,22.08
2022-11-09T03:04:43.247Z,20.70
2022-11-09T03:07:11.792Z,21.42
2022-11-09T03:09:42.492Z,22.00
2022-11-09T03:12:29.299Z,19.85
2022-11-09T03:15:03.396Z,23.02
2022-11-09T03:17:33.580Z,23.13
2022-11-09T03:20:02.045Z,23.00
2022-11-09T03:22:30.278Z,23.13
2022-11-09T03:25:00.134Z,21.20
2022-11-09T03:27:28.729Z,25.98
2022-11-09T03:29:56.789Z,22.73
2022-11-09T03:32:25.606Z,25.30
2022-11-09T03:34:54.067Z,22.85
2022-11-09T03:37:22.175Z,25.73
2022-11-09T03:39:50.433Z,27.25
2022-11-09T03:42:19.837Z,26.25
2022-11-09T03:44:47.931Z,23.70
2022-11-09T03:47:16.098Z,24.45
2022-11-09T03:49:44.051Z,26.35
2022-11-09T03:52:12.424Z,25.42
2022-11-09T03:54:42.116Z,26.40
2022-11-09T03:57:10.241Z,24.05
2022-11-09T03:59:39.637Z,26.55
2022-11-09T04:02:07.795Z,24.35
2022-11-09T04:04:35.950Z,25.25
2022-11-09T04:07:03.960Z,25.30
2022-11-09T04:09:32.618Z,24.20
2022-11-09T04:12:00.526Z,24.98
2022-11-09T04:14:28.386Z,24.95
2022-11-09T04:16:57.846Z,23.60
2022-11-09T04:19:25.771Z,25.23
2022-11-09T04:21:53.793Z,25.50
2022-11-09T04:24:21.736Z,22.42
2022-11-09T04:26:50.213Z,24.77
2022-11-09T04:29:18.476Z,25.63
2022-11-09T04:31:46.516Z,23.98
2022-11-09T04:34:16.046Z,27.73
2022-11-09T04:36:45.293Z,25.10
2022-11-09T04:39:13.348Z,24.80
2022-11-09T04:41:41.574Z,25.50
2022-11-09T04:44:09.864Z,24.65
2022-11-09T04:46:37.960Z,23.00
2022-11-09T04:49:05.966Z,23.90
2022-11-09T04:51:35.397Z,25.10
2022-11-09T04:54:03.442Z,24.05
2022-11-09T04:56:31.449Z,24.90
2022-11-09T04:59:49.535Z,23.33
2022-11-09T05:02:17.950Z,24.00
2022-11-09T05:04:46.239Z,24.10
2022-11-09T05:07:17.869Z,23.77
2022-11-09T05:09:45.916Z,25.02
2022-11-09T05:12:14.311Z,23.20
2022-11-09T05:14:42.348Z,20.70
2022-11-09T05:17:10.474Z,22.20
2022-11-09T05:19:38.635Z,22.83
2022-11-09T05:22:22.119Z,23.92
2022-11-09T05:24:56.497Z,23.77
2022-11-09T05:27:24.580Z,22.73
2022-11-09T05:29:52.537Z,22.08
2022-11-09T05:32:20.542Z,25.73
2022-11-09T05:34:48.704Z,24.85
2022-11-09T05:37:17.607Z,22.25
2022-11-09T05:39:45.577Z,23.13
2022-11-09T05:42:15.304Z,21.90
2022-11-09T05:44:43.294Z,23.92
2022-11-09T05:47:11.356Z,23.70
2022-11-09T05:49:39.504Z,23.42
2022-11-09T05:52:07.727Z,26.08
2022-11-09T05:54:35.620Z,22.42
2022-11-09T05:57:03.684Z,24.65
2022-11-09T05:59:33.044Z,24.08
2022-11-09T06:02:01.222Z,26.83
2022-11-09T06:04:29.524Z,24.95
2022-11-09T06:06:57.523Z,25.55
2022-11-09T06:09:25.685Z,23.95
2022-11-09T06:11:53.672Z,25.00
2022-11-09T06:14:21.665Z,26.50
2022-11-09T06:16:51.310Z,25.80
2022-11-09T06:19:19.286Z,20.30
2022-11-09T06:21:47.435Z,22.38
2022-11-09T06:24:15.723Z,22.17
2022-11-09T06:26:44.107Z,22.40
2022-11-09T06:29:12.068Z,22.88
2022-11-09T06:31:40.106Z,22.38
2022-11-09T06:34:10.256Z,24.30
2022-11-09T06:36:38.381Z,22.13
2022-11-09T06:39:08.857Z,22.42
2022-11-09T06:41:37.155Z,22.20
2022-11-09T06:44:06.443Z,25.10
2022-11-09T06:46:35.027Z,23.58
2022-11-09T06:49:03.040Z,25.30
2022-11-09T06:51:32.485Z,26.25
2022-11-09T06:54:00.793Z,25.25
2022-11-09T06:56:28.897Z,25.17
2022-11-09T06:58:56.895Z,24.63
2022-11-09T07:01:29.780Z,24.85
2022-11-09T07:03:58.202Z,23.63
2022-11-09T07:06:26.368Z,23.10
2022-11-09T07:08:58.190Z,23.90
2022-11-09T07:11:26.166Z,22.48
2022-11-09T07:13:57.441Z,25.88
2022-11-09T07:16:26.073Z,23.27
2022-11-09T07:18:54.601Z,20.92
2022-11-09T07:21:22.709Z,23.38
2022-11-09T07:23:51.131Z,24.05
2022-11-09T07:26:20.577Z,21.83
2022-11-09T07:28:48.619Z,23.35
2022-11-09T07:31:16.880Z,23.23
2022-11-09T07:33:44.912Z,19.98
2022-11-09T07:36:18.241Z,20.50
2022-11-09T07:38:48.957Z,20.67
2022-11-09T07:41:17.120Z,21.85
2022-11-09T07:43:46.724Z,24.33
2022-11-09T07:46:14.724Z,22.25
2022-11-09T07:48:42.760Z,22.83
2022-11-09T07:51:10.822Z,21.00
2022-11-09T07:53:39.546Z,26.42
2022-11-09T07:56:07.927Z,25.00
2022-11-09T07:58:37.013Z,24.42
2022-11-09T08:01:10.149Z,25.73
2022-11-09T08:03:38.529Z,24.38
2022-11-09T08:06:07.030Z,26.92
2022-11-09T08:08:35.343Z,23.92
2022-11-09T08:11:03.422Z,25.60
2022-11-09T08:13:31.439Z,22.55
2022-11-09T08:16:02.101Z,22.95
2022-11-09T08:18:31.612Z,23.52
2022-11-09T08:21:02.626Z,22.65
2022-11-09T08:23:30.980Z,23.27
2022-11-09T08:26:02.843Z,22.77
2022-11-09T08:28:31.131Z,23.85
2022-11-09T08:31:01.130Z,23.23
2022-11-09T08:33:34.913Z,26.10
2022-11-09T08:36:03.058Z,23.52
2022-11-09T08:38:33.247Z,22.75
2022-11-09T08:41:01.377Z,25.08
2022-11-09T08:43:29.493Z,25.00
2022-11-09T08:45:57.712Z,24.58
2022-11-09T08:48:26.095Z,26.50
2022-11-09T08:50:56.922Z,24.92
2022-11-09T08:53:26.103Z,23.67
2022-11-09T08:55:54.306Z,25.15
2022-11-09T08:58:23.587Z,25.98
2022-11-09T09:00:51.787Z,23.55
2022-11-09T09:03:19.915Z,23.73
2022-11-09T09:05:48.104Z,22.10
2022-11-09T09:08:21.964Z,22.65
2022-11-09T09:10:50.430Z,20.88
2022-11-09T09:13:19.444Z,22.45
2022-11-09T09:15:47.581Z,23.27
2022-11-09T09:18:16.052Z,22.23
2022-11-09T09:20:44.140Z,21.45
2022-11-09T09:23:14.243Z,21.25
2022-11-09T09:25:43.690Z,23.00
2022-11-09T09:28:11.841Z,20.65
2022-11-09T09:30:39.856Z,17.98
2022-11-09T09:33:07.923Z,20.52
2022-11-09T09:35:36.088Z,19.95
2022-11-09T09:38:04.324Z,22.30
2022-11-09T09:40:53.723Z,21.80
2022-11-09T09:43:32.199Z,21.30
2022-11-09T09:46:03.195Z,20.30
2022-11-09T09:48:37.906Z,19.25
2022-11-09T09:51:13.056Z,22.17
2022-11-09T09:53:47.605Z,21.10
2022-11-09T09:56:22.907Z,22.08
2022-11-09T09:59:11.078Z,21.45
2022-11-09T10:01:40.691Z,21.17
2022-11-09T10:04:18.189Z,21.75
2022-11-09T10:07:01.068Z,20.50
2022-11-09T10:09:39.718Z,22.90
2022-11-09T10:12:19.368Z,21.80
2022-11-09T10:15:04.583Z,22.38
2022-11-09T10:17:41.656Z,22.98
2022-11-09T10:20:28.571Z,21.77
2022-11-09T10:23:08.176Z,19.90
2022-11-09T10:28:47.589Z,21.85
2022-11-09T10:31:21.273Z,21.65
2022-11-09T10:33:54.956Z,21.13
2022-11-09T10:36:28.622Z,21.92
2022-11-09T10:39:01.810Z,22.92
2022-11-09T10:41:48.686Z,20.25
2022-11-09T10:44:37.056Z,19.58
2022-11-09T10:47:24.193Z,22.65
2022-11-09T10:50:22.722Z,21.77
2022-11-09T10:53:15.689Z,23.20
2022-11-09T10:56:20.313Z,21.98
2022-11-09T10:59:36.490Z,21.75
2022-11-09T11:02:50.013Z,23.70
2022-11-09T11:05:37.370Z,23.17
2022-11-09T11:08:27.765Z,22.00
2022-11-09T11:11:34.956Z,22.77
2022-11-09T11:14:30.408Z,24.33
2022-11-09T11:17:27.956Z,22.27
2022-11-09T11:20:32.539Z,22.70
2022-11-09T11:23:21.593Z,22.92
2022-11-09T11:26:31.498Z,22.63
2022-11-09T11:29:33.728Z,24.23
2022-11-09T11:32:21.600Z,25.00
2022-11-09T11:35:14.912Z,22.35
2022-11-09T11:38:17.380Z,22.85
2022-11-09T11:41:21.585Z,22.17
2022-11-09T11:44:18.675Z,22.58
2022-11-09T11:47:11.254Z,25.80
2022-11-09T11:50:26.416Z,22.60
2022-11-09T11:53:28.331Z,24.15
2022-11-09T11:56:23.425Z,24.73
2022-11-09T11:59:48.064Z,27.02
2022-11-09T12:03:10.874Z,22.00
2022-11-09T12:06:12.118Z,20.27
2022-11-09T12:09:10.509Z,23.65
2022-11-09T12:12:12.267Z,25.75
2022-11-09T12:15:22.164Z,23.30
2022-11-09T12:18:18.190Z,23.08
2022-11-09T12:21:15.675Z,22.48
2022-11-09T12:24:16.662Z,22.75
2022-11-09T12:27:39.722Z,23.75
2022-11-09T12:30:37.096Z,23.02
2022-11-09T12:33:33.654Z,24.30
2022-11-09T12:36:25.528Z,23.02
2022-11-09T12:39:21.332Z,22.45
2022-11-09T12:42:12.564Z,22.55
2022-11-09T12:45:06.099Z,24.73
2022-11-09T12:47:54.801Z,23.15
2022-11-09T12:50:42.827Z,23.17
2022-11-09T12:53:33.612Z,22.33
2022-11-09T12:56:25.786Z,21.88
2022-11-09T12:59:36.879Z,23.05
2022-11-09T13:02:29.484Z,20.45
2022-11-09T13:05:30.786Z,21.50
2022-11-09T13:08:22.391Z,19.73
2022-11-09T13:11:12.351Z,19.92
2022-11-09T13:14:33.347Z,21.35
2022-11-09T13:18:02.882Z,20.42
2022-11-09T13:20:57.017Z,19.70
2022-11-09T13:24:03.462Z,20.05
2022-11-09T13:27:00.249Z,19.70
2022-11-09T13:29:56.110Z,20.52
2022-11-09T13:33:33.565Z,22.23
2022-11-09T13:36:22.209Z,22.02
2022-11-09T13:39:32.151Z,19.77
2022-11-09T13:42:31.124Z,19.60
2022-11-09T13:45:26.952Z,20.25
2022-11-09T13:48:36.051Z,23.65
2022-11-09T13:51:38.369Z,21.90
2022-11-09T13:54:32.694Z,21.38
2022-11-09T13:57:18.940Z,20.38
2022-11-09T14:00:07.398Z,22.25
2022-11-09T14:03:00.220Z,22.80
2022-11-09T14:05:49.848Z,20.85
2022-11-09T14:08:41.714Z,19.85
2022-11-09T14:11:51.850Z,19.38
2022-11-09T14:15:06.097Z,20.55
2022-11-09T14:18:07.918Z,19.58
2022-11-09T14:21:01.433Z,17.98
2022-11-09T14:23:49.411Z,20.45
2022-11-09T14:26:36.167Z,19.70
2022-11-09T14:29:24.335Z,19.95
2022-11-09T14:32:24.732Z,20.35
2022-11-09T14:35:23.988Z,20.85
2022-11-09T14:38:19.128Z,21.00
2022-11-09T14:41:20.423Z,22.58
2022-11-09T14:44:07.642Z,21.85
2022-11-09T14:46:54.673Z,23.40
2022-11-09T14:49:41.907Z,22.30
2022-11-09T14:52:30.961Z,20.20
2022-11-09T14:55:19.844Z,19.10
2022-11-09T14:58:13.420Z,22.10
2022-11-09T15:01:11.675Z,22.35
2022-11-09T15:04:11.096Z,22.20
2022-11-09T15:07:00.425Z,19.35
2022-11-09T15:09:49.392Z,21.30
2022-11-09T15:12:39.197Z,22.42
2022-11-09T15:15:32.483Z,22.73
2022-11-09T15:18:22.462Z,21.55
2022-11-09T15:21:18.679Z,22.83
2022-11-09T15:24:15.324Z,22.27
2022-11-09T15:27:01.857Z,21.20
2022-11-09T15:29:49.255Z,22.70
2022-11-09T15:32:40.496Z,22.02
2022-11-09T15:35:27.931Z,22.95
2022-11-09T15:38:30.602Z,24.38
2022-11-09T15:41:20.178Z,23.15
2022-11-09T15:44:07.828Z,23.23
2022-11-09T15:46:54.981Z,24.85
2022-11-09T15:49:42.577Z,25.80
2022-11-09T15:52:29.297Z,23.23
2022-11-09T15:55:18.272Z,23.58
2022-11-09T15:58:05.343Z,25.30
2022-11-09T16:00:52.370Z,25.23
2022-11-09T16:03:39.395Z,26.17
2022-11-09T16:06:27.562Z,25.27
2022-11-09T16:09:14.391Z,25.60
2022-11-09T16:12:01.010Z,25.17
2022-11-09T16:14:47.400Z,25.92
2022-11-09T16:17:34.280Z,24.30
2022-11-09T16:20:21.887Z,26.17
2022-11-09T16:23:09.604Z,26.98
2022-11-09T16:25:56.207Z,25.90
2022-11-09T16:28:43.544Z,26.75
2022-11-09T16:31:50.376Z,24.77
2022-11-09T16:34:37.035Z,25.27
2022-11-09T16:37:24.719Z,26.55
2022-11-09T16:40:14.824Z,28.33
2022-11-09T16:43:01.946Z,26.67
2022-11-09T16:45:51.253Z,27.73
2022-11-09T16:48:37.995Z,26.88
2022-11-09T16:51:24.562Z,30.20
2022-11-09T16:54:11.868Z,26.17
2022-11-09T16:57:00.786Z,28.35
2022-11-09T16:59:47.539Z,29.15
2022-11-09T17:02:34.996Z,27.30
2022-11-09T17:05:21.979Z,31.73
2022-11-09T17:08:09.081Z,27.65
2022-11-09T17:10:56.604Z,28.92
2022-11-09T17:13:44.624Z,29.30
2022-11-09T17:16:31.278Z,27.38
2022-11-09T17:19:17.688Z,27.63
2022-11-09T17:22:05.041Z,27.00
2022-11-09T17:24:51.709Z,27.13
2022-11-09T17:27:39.274Z,28.80
2022-11-09T17:30:26.862Z,28.60
2022-11-09T17:33:13.575Z,28.00
2022-11-09T17:36:00.930Z,28.13
2022-11-09T17:38:47.543Z,27.80
2022-11-09T17:41:37.458Z,30.23
2022-11-09T17:44:27.550Z,26.60
2022-11-09T17:47:15.628Z,29.45
2022-11-09T17:50:02.457Z,27.63
2022-11-09T17:52:50.440Z,28.20
2022-11-09T17:55:38.394Z,29.20
2022-11-09T17:58:25.958Z,27.27
2022-11-09T18:01:14.971Z,28.60
2022-11-09T18:04:06.348Z,28.50
2022-11-09T18:06:53.223Z,27.70
2022-11-09T18:09:42.084Z,27.02
2022-11-09T18:12:29.710Z,29.88
2022-11-09T18:15:16.115Z,29.83
2022-11-09T18:18:02.770Z,30.33
2022-11-09T18:20:51.270Z,29.33
2022-11-09T18:23:38.058Z,29.67
2022-11-09T18:26:24.608Z,30.38
2022-11-09T18:29:11.390Z,30.83
2022-11-09T18:31:58.257Z,31.83
2022-11-09T18:34:45.517Z,31.95
2022-11-09T18:37:35.901Z,36.95
2022-11-09T18:40:22.492Z,34.17
2022-11-09T18:43:08.860Z,30.80
2022-11-09T18:45:57.502Z,28.88
2022-11-09T18:48:44.906Z,34.90
2022-11-09T18:51:32.171Z,36.80
2022-11-09T18:54:20.069Z,34.03
2022-11-09T18:57:06.889Z,44.10
2022-11-09T18:59:54.041Z,45.03
2022-11-09T19:02:40.791Z,30.92
2022-11-09T19:05:27.317Z,29.80
2022-11-09T19:08:14.783Z,31.90
2022-11-09T19:11:07.262Z,29.88
2022-11-09T19:13:54.923Z,29.90
2022-11-09T19:16:42.971Z,33.58
2022-11-09T19:19:29.854Z,33.83
2022-11-09T19:22:19.320Z,35.15
2022-11-09T19:25:06.852Z,32.13
2022-11-09T19:27:55.094Z,29.45
2022-11-09T19:30:42.043Z,31.77
2022-11-09T19:33:28.513Z,35.05
2022-11-09T19:36:29.844Z,32.67
2022-11-09T19:39:17.647Z,34.67
2022-11-09T19:42:05.413Z,36.22
2022-11-09T19:44:56.425Z,31.90
2022-11-09T19:47:43.793Z,32.88
2022-11-09T19:50:30.421Z,32.25
2022-11-09T19:53:17.462Z,34.33
2022-11-09T19:56:08.597Z,32.75
2022-11-09T19:58:57.598Z,32.10
2022-11-09T20:01:45.847Z,33.08
2022-11-09T20:04:33.150Z,31.80
2022-11-09T20:07:20.219Z,29.95
2022-11-09T20:10:09.062Z,30.20
2022-11-09T20:12:55.562Z,29.00
2022-11-09T20:15:42.763Z,30.67
2022-11-09T20:18:31.089Z,31.60
2022-11-09T20:21:17.952Z,29.27
2022-11-09T20:24:04.501Z,31.92
2022-11-09T20:26:51.226Z,33.42
2022-11-09T20:29:37.892Z,33.53
2022-11-09T20:32:25.414Z,30.17
2022-11-09T20:35:13.845Z,30.48
2022-11-09T20:38:00.895Z,30.17
2022-11-09T20:40:54.558Z,32.72
2022-11-09T20:43:41.062Z,31.65
2022-11-09T20:46:32.720Z,32.20
2022-11-09T20:49:22.654Z,35.65
2022-11-09T20:52:10.977Z,29.67
2022-11-09T20:54:57.314Z,29.45
2022-11-09T20:57:43.656Z,31.40
2022-11-09T21:00:30.990Z,29.35
2022-11-09T21:03:17.799Z,31.70
2022-11-09T21:06:06.629Z,30.10
2022-11-09T21:08:57.016Z,32.13
2022-11-09T21:11:57.420Z,32.42
2022-11-09T21:14:44.836Z,30.92
2022-11-09T21:17:32.379Z,31.63
2022-11-09T21:20:18.947Z,30.35
2022-11-09T21:23:23.537Z,31.52
2022-11-09T21:26:29.311Z,31.00
2022-11-09T21:29:34.495Z,29.10
2022-11-09T21:32:25.478Z,28.40
2022-11-09T21:35:12.456Z,29.88
2022-11-09T21:37:59.470Z,30.35
2022-11-09T21:40:46.856Z,29.58
2022-11-09T21:43:35.063Z,27.90
2022-11-09T21:46:21.997Z,31.73
2022-11-09T21:49:09.913Z,27.60
2022-11-09T21:51:56.613Z,28.58
2022-11-09T21:54:43.388Z,27.15
2022-11-09T21:57:30.395Z,30.17
2022-11-09T22:00:19.864Z,26.58
2022-11-09T22:03:06.420Z,30.15
2022-11-09T22:05:52.796Z,27.58
2022-11-09T22:08:39.926Z,27.58
2022-11-09T22:11:42.079Z,22.50
2022-11-09T22:14:46.869Z,24.40
2022-11-09T22:17:34.941Z,23.30
2022-11-09T22:20:39.072Z,24.85
2022-11-09T22:23:25.528Z,23.52
2022-11-09T22:26:12.105Z,22.02
2022-11-09T22:28:58.693Z,24.23
2022-11-09T22:31:47.723Z,22.13
2022-11-09T22:34:35.603Z,21.35
2022-11-09T22:37:23.152Z,22.63
2022-11-09T22:40:11.258Z,24.00
2022-11-09T22:42:58.300Z,19.63
2022-11-09T22:45:44.906Z,20.85
2022-11-09T22:48:32.372Z,20.65
2022-11-09T22:51:20.489Z,23.05
2022-11-09T22:54:07.248Z,22.23
2022-11-09T22:57:13.486Z,22.27
2022-11-09T22:59:59.994Z,22.35
2022-11-09T23:02:47.107Z,22.52
2022-11-09T23:05:34.875Z,22.15
2022-11-09T23:08:23.157Z,18.95
2022-11-09T23:11:13.984Z,18.02
2022-11-09T23:14:00.952Z,19.45
2022-11-09T23:16:47.732Z,17.85
2022-11-09T23:19:32.936Z,17.05
2022-11-09T23:22:19.507Z,17.95
2022-11-09T23:25:27.175Z,16.13
2022-11-09T23:28:14.020Z,16.25
2022-11-09T23:31:01.322Z,13.88
2022-11-09T23:33:49.149Z,17.05
2022-11-09T23:36:35.467Z,15.25
2022-11-09T23:39:22.790Z,13.52
2022-11-09T23:42:10.838Z,13.82
2022-11-09T23:44:57.420Z,14.48
2022-11-09T23:47:43.848Z,13.55
2022-11-09T23:50:30.969Z,13.85
2022-11-09T23:53:18.045Z,13.52
2022-11-09T23:56:07.831Z,13.05
2022-11-09T23:58:56.104Z,12.30
